Time;durP1;ratioP1;P1;durP2;ratioP2;P2;SDS_P1;SDS_P2;PMS_P1;PMS_P2;Temp;Humidity;BMP_temperature;BMP_pressure;BME280_temperature;BME280_humidity;BME280_pressure;Samples;Min_cycle;Max_cycle;Signal;HPM_P1;HPM_P2
2022/11/01 00:02:00;;;;;;;;;;;;;;;16.60;88.09;100209.53;5031441;28;1866;-64
2022/11/01 00:04:26;;;;;;;;;;;;;;;16.59;87.65;100202.38;5031686;28;1685;-65
2022/11/01 00:06:51;;;;;;;;;;;;;;;16.60;88.27;100197.66;5030551;28;1934;-64
2022/11/01 00:09:16;;;;;;;;;;;;;;;16.60;87.68;100184.66;5028704;28;1878;-64
2022/11/01 00:11:41;;;;;;;;;;;;;;;16.61;88.31;100178.03;5031764;28;1894;-64
2022/11/01 00:14:07;;;;;;;;;;;;;;;16.62;88.39;100187.13;5032767;28;1894;-64
2022/11/01 00:16:32;;;;;;;;;;;;;;;16.63;88.37;100188.75;5032034;28;1788;-64
2022/11/01 00:18:57;;;;;;;;;;;;;;;16.63;87.60;100188.75;5032946;28;1476;-64
2022/11/01 00:21:23;;;;;;;;;;;;;;;16.62;88.34;100181.59;5032920;28;1042;-64
2022/11/01 00:23:48;;;;;;;;;;;;;;;16.62;88.17;100179.66;5032903;28;1058;-64
2022/11/01 00:26:20;;;;;;;;;;;;;;;16.62;87.51;100176.09;5032645;28;916;-64
2022/11/01 00:28:45;;;;;;;;;;;;;;;16.62;87.90;100178.84;5032776;28;1212;-64
2022/11/01 00:31:11;;;;;;;;;;;;;;;16.62;88.56;100182.41;5033027;28;809;-64
2022/11/01 00:33:38;;;;;;;;;;;;;;;16.63;87.89;100174.94;5030011;28;1948;-64
2022/11/01 00:36:03;;;;;;;;;;;;;;;16.63;88.13;100181.28;5032457;28;1591;-64
2022/11/01 00:38:28;;;;;;;;;;;;;;;16.63;87.85;100177.72;5032999;28;1221;-63
2022/11/01 00:40:54;;;;;;;;;;;;;;;16.64;87.96;100177.38;5036477;28;1094;-64
2022/11/01 00:43:19;;;;;;;;;;;;;;;16.63;88.74;100178.53;5036487;28;928;-65
2022/11/01 00:45:44;;;;;;;;;;;;;;;16.62;88.82;100187.94;5041493;28;1977;-65
2022/11/01 00:48:10;;;;;;;;;;;;;;;16.62;88.11;100176.91;5036488;28;1551;-64
2022/11/01 00:50:36;;;;;;;;;;;;;;;16.62;87.65;100176.91;5036335;28;951;-65
2022/11/01 00:53:01;;;;;;;;;;;;;;;16.64;88.46;100173.81;5035588;28;1957;-64
2022/11/01 00:55:26;;;;;;;;;;;;;;;16.63;89.04;100177.72;5036146;28;1630;-64
2022/11/01 00:57:51;;;;;;;;;;;;;;;16.62;88.64;100174.13;5035770;28;1266;-64
2022/11/01 01:00:16;;;;;;;;;;;;;;;16.63;88.82;100175.75;5036613;28;914;-64
2022/11/01 01:02:42;;;;;;;;;;;;;;;16.63;88.70;100167.47;5034411;28;1861;-65
2022/11/01 01:05:07;;;;;;;;;;;;;;;16.63;88.98;100167.47;5036179;28;1452;-64
2022/11/01 01:07:33;;;;;;;;;;;;;;;16.63;89.16;100166.66;5035703;28;1208;-64
2022/11/01 01:09:58;;;;;;;;;;;;;;;16.63;88.28;100163.88;5035962;28;1000;-65
2022/11/01 01:12:23;;;;;;;;;;;;;;;16.63;88.38;100153.66;5033591;28;1894;-64
2022/11/01 01:14:48;;;;;;;;;;;;;;;16.63;88.63;100153.66;5034088;28;1852;-65
2022/11/01 01:17:13;;;;;;;;;;;;;;;16.63;89.28;100150.88;5032869;28;1939;-63
2022/11/01 01:19:39;;;;;;;;;;;;;;;16.64;88.50;100148.94;5034919;28;1862;-64
2022/11/01 01:22:04;;;;;;;;;;;;;;;16.64;88.89;100135.13;5035024;28;1621;-64
2022/11/01 01:24:30;;;;;;;;;;;;;;;16.64;88.91;100141.47;5034057;28;1845;-64
2022/11/01 01:26:55;;;;;;;;;;;;;;;16.63;89.21;100131.53;5034713;28;1893;-64
2022/11/01 01:29:20;;;;;;;;;;;;;;;16.64;88.79;100135.94;5033620;28;1828;-64
2022/11/01 01:31:46;;;;;;;;;;;;;;;16.64;88.56;100127.63;5034157;28;1936;-64
2022/11/01 01:34:11;;;;;;;;;;;;;;;16.63;89.02;100120.50;5034829;28;1880;-64
2022/11/01 01:36:36;;;;;;;;;;;;;;;16.63;89.24;100117.72;5033804;28;1888;-64
2022/11/01 01:39:01;;;;;;;;;;;;;;;16.64;89.17;100115.78;5033340;28;2101;-64
2022/11/01 01:44:29;;;;;;;;;;;;;;;16.64;88.67;100110.25;5034783;28;1793;-64
2022/11/01 01:46:54;;;;;;;;;;;;;;;16.63;89.41;100114.16;5029153;28;1898;-64
2022/11/01 01:49:19;;;;;;;;;;;;;;;16.63;88.66;100114.97;5033847;28;1895;-64
2022/11/01 01:51:44;;;;;;;;;;;;;;;16.64;89.56;100107.47;5032586;28;1901;-64
2022/11/01 01:54:10;;;;;;;;;;;;;;;16.63;88.97;100101.16;5032230;28;1800;-64
2022/11/01 01:56:35;;;;;;;;;;;;;;;16.63;89.01;100098.38;5032580;28;1895;-64
2022/11/01 01:59:08;;;;;;;;;;;;;;;16.64;89.38;100093.66;5033104;28;2236;-64
2022/11/01 02:01:35;;;;;;;;;;;;;;;16.64;88.74;100101.97;5031342;28;1898;-65
2022/11/01 02:04:07;;;;;;;;;;;;;;;16.64;89.44;100101.97;5029434;28;1923;-64
2022/11/01 02:06:34;;;;;;;;;;;;;;;16.64;88.55;100100.00;5034868;28;1672;-64
2022/11/01 02:09:01;;;;;;;;;;;;;;;16.63;89.52;100101.16;5032054;28;1913;-65
2022/11/01 02:11:27;;;;;;;;;;;;;;;16.64;88.80;100099.19;5032515;28;1816;-65
2022/11/01 02:13:52;;;;;;;;;;;;;;;16.64;89.40;100099.19;5031891;28;1886;-64
2022/11/01 02:16:29;;;;;;;;;;;;;;;16.65;89.85;100106.34;5034443;28;1606;-64
2022/11/01 02:18:57;;;;;;;;;;;;;;;16.64;89.54;100099.19;5034604;28;1618;-65
2022/11/01 02:21:40;;;;;;;;;;;;;;;16.66;89.57;100109.91;5034537;28;1052;-65
2022/11/01 02:24:18;;;;;;;;;;;;;;;16.65;88.90;100114.63;5034656;28;892;-65
2022/11/01 02:26:49;;;;;;;;;;;;;;;16.64;88.99;100108.31;5031515;28;1915;-64
2022/11/01 02:29:27;;;;;;;;;;;;;;;16.66;89.16;100129.25;5034244;28;1555;-65
2022/11/01 02:32:14;;;;;;;;;;;;;;;16.65;89.38;100114.63;5033580;28;1973;-64
2022/11/01 02:34:42;;;;;;;;;;;;;;;16.65;89.33;100106.34;5034444;28;1403;-64
2022/11/01 02:37:08;;;;;;;;;;;;;;;16.66;89.02;100107.97;5034174;28;980;-63
2022/11/01 02:39:35;;;;;;;;;;;;;;;16.64;89.04;100094.47;5033548;28;1717;-64
2022/11/01 02:42:20;;;;;;;;;;;;;;;16.64;89.44;100099.19;5034236;28;1563;-64
2022/11/01 02:44:51;;;;;;;;;;;;;;;16.64;89.16;100101.97;5033686;28;1796;-63
2022/11/01 02:47:17;;;;;;;;;;;;;;;16.65;89.60;100098.06;5032125;28;1579;-64
2022/11/01 02:49:46;;;;;;;;;;;;;;;16.66;89.87;100098.88;5032166;28;1712;-65
2022/11/01 02:52:14;;;;;;;;;;;;;;;16.64;89.22;100086.19;5033774;28;2139;-64
2022/11/01 02:54:42;;;;;;;;;;;;;;;16.64;89.69;100088.13;5032895;28;1686;-63
2022/11/01 02:57:26;;;;;;;;;;;;;;;16.64;89.49;100093.66;5033495;28;1511;-64
2022/11/01 02:59:51;;;;;;;;;;;;;;;16.65;89.46;100084.25;5033786;28;1296;-64
2022/11/01 03:02:38;;;;;;;;;;;;;;;16.66;89.45;100077.56;5033562;28;943;-64
2022/11/01 03:05:05;;;;;;;;;;;;;;;16.67;89.22;100070.09;5031911;28;2042;-64
2022/11/01 03:07:30;;;;;;;;;;;;;;;16.68;90.39;100061.44;5032388;28;1856;-63
2022/11/01 03:09:55;;;;;;;;;;;;;;;16.68;89.50;100052.34;5032273;28;1719;-64
2022/11/01 03:12:27;;;;;;;;;;;;;;;16.69;90.03;100068.59;5030273;28;1886;-64
2022/11/01 03:14:56;;;;;;;;;;;;;;;16.69;89.69;100060.31;5032214;28;1751;-64
2022/11/01 03:17:21;;;;;;;;;;;;;;;16.69;89.38;100084.38;5030567;28;1925;-65
2022/11/01 03:19:48;;;;;;;;;;;;;;;16.70;90.08;100074.94;5031631;28;1777;-64
2022/11/01 03:22:25;;;;;;;;;;;;;;;16.68;90.25;100066.97;5032683;28;1831;-64
2022/11/01 03:24:56;;;;;;;;;;;;;;;16.68;90.62;100060.63;5022926;28;1819;-64
2022/11/01 03:27:33;;;;;;;;;;;;;;;16.67;90.34;100039.69;5031433;28;1630;-64
2022/11/01 03:30:06;;;;;;;;;;;;;;;16.67;90.21;100037.75;5032418;28;1662;-64
2022/11/01 03:32:35;;;;;;;;;;;;;;;16.68;90.63;100035.75;5031630;28;1890;-63
2022/11/01 03:35:02;;;;;;;;;;;;;;;16.69;90.61;100051.22;5031838;28;1803;-63
2022/11/01 03:37:27;;;;;;;;;;;;;;;16.68;90.54;100044.88;5031509;28;1685;-63
2022/11/01 03:39:53;;;;;;;;;;;;;;;16.67;90.32;100034.97;5029335;28;1693;-64
2022/11/01 03:42:20;;;;;;;;;;;;;;;16.68;90.31;100044.88;5030768;28;1709;-64
2022/11/01 03:44:51;;;;;;;;;;;;;;;16.68;90.69;100044.06;5031876;28;1918;-64
2022/11/01 03:47:17;;;;;;;;;;;;;;;16.68;90.80;100039.34;5032284;28;1765;-64
2022/11/01 03:49:42;;;;;;;;;;;;;;;16.68;90.17;100047.63;5030509;28;1984;-64
2022/11/01 03:52:07;;;;;;;;;;;;;;;16.69;91.00;100052.03;5031612;28;1894;-63
2022/11/01 03:54:32;;;;;;;;;;;;;;;16.69;89.93;100056.72;5031153;28;1870;-64
2022/11/01 03:56:57;;;;;;;;;;;;;;;16.69;90.75;100057.53;5028914;28;1896;-64
2022/11/01 03:59:25;;;;;;;;;;;;;;;16.70;90.01;100063.88;5031913;28;1636;-64
2022/11/01 04:01:50;;;;;;;;;;;;;;;16.71;90.79;100060.78;5027553;28;1911;-65
2022/11/01 04:04:15;;;;;;;;;;;;;;;16.70;89.97;100061.94;5031668;28;1944;-64
2022/11/01 04:06:40;;;;;;;;;;;;;;;16.70;90.01;100070.22;5031912;28;1920;-64
2022/11/01 04:09:06;;;;;;;;;;;;;;;16.70;90.47;100073.00;5030625;28;2019;-64
2022/11/01 04:11:31;;;;;;;;;;;;;;;16.70;89.77;100070.22;5031179;28;1840;-64
2022/11/01 04:20:31;;;;;;;;;;;;;;;16.70;90.02;100070.22;5030307;28;1957;-64
2022/11/01 04:22:09;;;;;;;;;;;;;;;16.71;90.99;100082.09;5035393;28;1628;-64
2022/11/01 04:24:34;;;;;;;;;;;;;;;16.70;90.74;100078.53;5036884;28;1595;-63
2022/11/01 04:26:59;;;;;;;;;;;;;;;16.70;90.42;100084.03;5036670;28;857;-64
2022/11/01 04:29:24;;;;;;;;;;;;;;;16.71;90.18;100077.38;5065210;22;2237;-61
2022/11/01 04:31:50;;;;;;;;;;;;;;;16.71;90.30;100095.91;5036531;28;1902;-62
2022/11/01 04:34:40;;;;;;;;;;;;;;;16.71;90.58;100093.16;5048478;28;879;-64
2022/11/01 04:37:00;;;;;;;;;;;;;;;16.71;91.02;100102.25;5055962;28;1499;-61
2022/11/01 04:39:25;;;;;;;;;;;;;;;16.71;90.39;100106.97;5056464;28;1268;-63
2022/11/01 04:41:50;;;;;;;;;;;;;;;16.71;90.94;100102.25;5056547;28;900;-62
2022/11/01 04:44:15;;;;;;;;;;;;;;;16.71;90.93;100110.53;5056377;28;1030;-63
2022/11/01 04:46:40;;;;;;;;;;;;;;;16.71;90.51;100112.50;5055369;28;1845;-62
2022/11/01 04:49:05;;;;;;;;;;;;;;;16.71;91.37;100115.25;5053471;28;1884;-62
2022/11/01 04:51:31;;;;;;;;;;;;;;;16.70;90.59;100117.22;5050734;28;1878;-65
2022/11/01 04:53:56;;;;;;;;;;;;;;;16.71;91.39;100127.13;5054456;28;1964;-62
2022/11/01 04:56:21;;;;;;;;;;;;;;;16.71;90.76;100129.06;5054024;28;1616;-61
2022/11/01 04:58:46;;;;;;;;;;;;;;;16.70;90.45;100128.25;5051752;28;1939;-62
2022/11/01 05:01:11;;;;;;;;;;;;;;;16.71;91.34;100126.31;5055337;28;1789;-62
2022/11/01 05:03:37;;;;;;;;;;;;;;;16.70;91.47;100131.03;5055374;28;1703;-61
2022/11/01 05:06:02;;;;;;;;;;;;;;;16.70;91.24;100136.56;5054818;28;1773;-63
2022/11/01 05:08:27;;;;;;;;;;;;;;;16.70;91.30;100133.78;5052858;28;1988;-62
2022/11/01 05:10:54;;;;;;;;;;;;;;;16.73;91.45;100148.91;5054502;28;1850;-62
2022/11/01 05:13:19;;;;;;;;;;;;;;;16.73;91.25;100160.78;5054822;28;1898;-61
2022/11/01 05:15:44;;;;;;;;;;;;;;;16.75;90.64;100158.50;5054769;28;1992;-66
2022/11/01 05:18:09;;;;;;;;;;;;;;;16.75;91.38;100157.69;5053268;28;1875;-62
2022/11/01 05:20:34;;;;;;;;;;;;;;;16.76;90.50;100151.03;5054672;28;1815;-62
2022/11/01 05:23:00;;;;;;;;;;;;;;;16.77;90.47;100147.09;5054843;28;1732;-61
2022/11/01 05:25:26;;;;;;;;;;;;;;;16.77;90.66;100145.16;5051617;28;1835;-65
2022/11/01 05:27:56;;;;;;;;;;;;;;;16.78;91.50;100144.00;5053678;28;1878;-62
2022/11/01 05:30:21;;;;;;;;;;;;;;;16.80;91.30;100140.91;5052773;28;1766;-61
2022/11/01 05:32:46;;;;;;;;;;;;;;;16.81;90.61;100134.25;5054461;28;1898;-63
2022/11/01 05:35:11;;;;;;;;;;;;;;;16.82;91.61;100136.69;5053541;28;1714;-61
2022/11/01 05:37:37;;;;;;;;;;;;;;;16.85;91.15;100136.00;5054376;28;1934;-62
2022/11/01 05:40:02;;;;;;;;;;;;;;;16.83;91.64;100124.50;5053525;28;1763;-61
2022/11/01 05:42:28;;;;;;;;;;;;;;;16.82;91.71;100131.16;5054148;28;1686;-61
2022/11/01 05:44:53;;;;;;;;;;;;;;;16.82;91.51;100131.16;5054330;28;1928;-62
2022/11/01 05:47:18;;;;;;;;;;;;;;;16.82;91.14;100128.41;5054295;28;2016;-64
2022/11/01 05:49:43;;;;;;;;;;;;;;;16.81;91.56;100135.06;5054324;28;1966;-64
2022/11/01 05:52:08;;;;;;;;;;;;;;;16.82;91.03;100138.63;5055094;28;1955;-64
2022/11/01 05:54:33;;;;;;;;;;;;;;;16.81;91.26;100137.00;5053865;28;1969;-63
2022/11/01 05:56:58;;;;;;;;;;;;;;;16.80;92.08;100124.34;5053182;28;1803;-63
2022/11/01 05:59:24;;;;;;;;;;;;;;;16.79;91.02;100129.03;5054244;28;1726;-63
2022/11/01 06:01:49;;;;;;;;;;;;;;;16.79;92.09;100129.03;5054080;28;1758;-64
2022/11/01 06:04:14;;;;;;;;;;;;;;;16.79;92.12;100140.09;5054080;28;1795;-64
2022/11/01 06:06:39;;;;;;;;;;;;;;;16.78;91.79;100138.47;5053768;28;1733;-64
2022/11/01 06:09:04;;;;;;;;;;;;;;;16.78;91.38;100132.94;5054084;28;1684;-64
2022/11/01 06:11:30;;;;;;;;;;;;;;;16.77;92.05;100134.09;5054852;28;1432;-64
2022/11/01 06:13:56;;;;;;;;;;;;;;;16.77;91.97;100136.84;5054815;28;1943;-64
2022/11/01 06:16:21;;;;;;;;;;;;;;;16.77;92.46;100136.84;5053560;28;1646;-64
2022/11/01 06:18:46;;;;;;;;;;;;;;;16.76;91.42;100143.53;5054637;28;1606;-64
2022/11/01 06:21:12;;;;;;;;;;;;;;;16.77;92.29;100150.66;5053621;28;1966;-64
2022/11/01 06:23:37;;;;;;;;;;;;;;;16.77;92.08;100158.97;5054649;28;1605;-64
2022/11/01 06:26:03;;;;;;;;;;;;;;;16.77;91.38;100158.16;5052228;28;2045;-63
2022/11/01 06:28:28;;;;;;;;;;;;;;;16.75;92.09;100164.03;5053428;28;1890;-63
2022/11/01 06:30:53;;;;;;;;;;;;;;;16.75;92.17;100155.75;5053562;28;1794;-64
2022/11/01 06:33:18;;;;;;;;;;;;;;;16.80;92.26;100168.56;5051778;28;2034;-65
2022/11/01 06:35:43;;;;;;;;;;;;;;;16.90;92.42;100169.03;5049531;28;2032;-65
2022/11/01 06:38:08;;;;;;;;;;;;;;;16.90;92.04;100179.25;5054059;28;1931;-65
2022/11/01 06:40:34;;;;;;;;;;;;;;;16.87;91.59;100180.72;5053249;28;1602;-64
2022/11/01 06:43:00;;;;;;;;;;;;;;;16.87;91.37;100179.91;5051520;28;1808;-64
2022/11/01 06:45:26;;;;;;;;;;;;;;;16.85;92.03;100185.75;5053777;28;1317;-65
2022/11/01 06:47:51;;;;;;;;;;;;;;;16.85;91.50;100185.75;5047543;28;1678;-65
2022/11/01 06:50:16;;;;;;;;;;;;;;;16.87;91.17;100186.25;5053391;28;1386;-64
2022/11/01 06:52:41;;;;;;;;;;;;;;;16.90;91.56;100201.38;5053215;28;1939;-65
2022/11/01 06:55:07;;;;;;;;;;;;;;;16.89;91.29;100206.09;5052996;28;2020;-65
2022/11/01 06:57:32;;;;;;;;;;;;;;;16.89;91.87;100211.63;5051950;28;1944;-64
2022/11/01 06:59:57;;;;;;;;;;;;;;;16.89;91.74;100217.16;5052449;28;1462;-64
2022/11/01 07:02:24;;;;;;;;;;;;;;;16.89;91.80;100217.16;5049526;28;2057;-64
2022/11/01 07:04:49;;;;;;;;;;;;;;;16.90;91.37;100216.03;5054095;28;2072;-64
2022/11/01 07:07:14;;;;;;;;;;;;;;;16.90;91.95;100218.78;5053010;28;1392;-65
2022/11/01 07:09:39;;;;;;;;;;;;;;;16.90;91.67;100221.53;5052139;28;1873;-64
2022/11/01 07:12:05;;;;;;;;;;;;;;;16.91;92.16;100220.41;5053032;28;1957;-65
2022/11/01 07:14:30;;;;;;;;;;;;;;;16.90;92.11;100216.03;5052103;28;2084;-64
2022/11/01 07:16:55;;;;;;;;;;;;;;;16.90;92.11;100221.53;5052337;28;1323;-64
2022/11/01 07:19:22;;;;;;;;;;;;;;;16.91;91.36;100228.69;5052225;28;2014;-64
2022/11/01 07:21:47;;;;;;;;;;;;;;;16.92;91.89;100230.31;5051987;28;1999;-64
2022/11/01 07:24:12;;;;;;;;;;;;;;;16.93;92.31;100231.94;5051820;28;2112;-64
2022/11/01 07:26:37;;;;;;;;;;;;;;;16.95;91.05;100232.41;5051855;28;1870;-64
2022/11/01 07:29:03;;;;;;;;;;;;;;;16.98;90.79;100228.19;5053992;28;2125;-64
2022/11/01 07:31:29;;;;;;;;;;;;;;;16.96;91.13;100228.50;5050123;28;1872;-64
2022/11/01 07:33:54;;;;;;;;;;;;;;;16.96;91.10;100236.81;5051927;28;1906;-64
2022/11/01 07:36:19;;;;;;;;;;;;;;;16.95;91.98;100243.47;5050415;28;2029;-64
2022/11/01 07:38:44;;;;;;;;;;;;;;;16.95;90.85;100243.47;5052657;28;1602;-64
2022/11/01 07:41:09;;;;;;;;;;;;;;;16.95;92.30;100249.00;5050735;28;1980;-64
2022/11/01 07:43:35;;;;;;;;;;;;;;;16.96;92.22;100247.06;5052766;28;1626;-65
2022/11/01 07:46:03;;;;;;;;;;;;;;;16.97;90.99;100259.75;5052178;28;1801;-64
2022/11/01 07:48:28;;;;;;;;;;;;;;;16.97;91.54;100260.56;5052537;28;1382;-64
2022/11/01 07:50:54;;;;;;;;;;;;;;;16.98;91.33;100259.41;5053210;28;1562;-64
2022/11/01 07:53:19;;;;;;;;;;;;;;;16.98;90.88;100253.06;5057193;28;1898;-64
2022/11/01 07:55:45;;;;;;;;;;;;;;;16.98;92.24;100250.31;5050942;28;2021;-64
2022/11/01 07:58:11;;;;;;;;;;;;;;;16.99;92.00;100250.00;5054779;28;1334;-64
2022/11/01 08:00:36;;;;;;;;;;;;;;;17.00;91.03;100264.63;5051854;28;1669;-64
2022/11/01 08:03:12;;;;;;;;;;;;;;;17.00;90.99;100259.91;5053032;28;1642;-64
2022/11/01 08:05:38;;;;;;;;;;;;;;;17.08;92.36;100262.97;5046972;28;1930;-63
2022/11/01 08:08:04;;;;;;;;;;;;;;;17.20;92.20;100261.13;5051878;28;1867;-64
2022/11/01 08:10:29;;;;;;;;;;;;;;;17.17;91.21;100255.47;5052100;28;1711;-64
2022/11/01 08:12:59;;;;;;;;;;;;;;;17.11;91.87;100257.56;5051976;28;2016;-64
2022/11/01 08:15:24;;;;;;;;;;;;;;;17.08;91.96;100265.75;5051200;28;1939;-64
2022/11/01 08:17:49;;;;;;;;;;;;;;;17.03;90.95;100264.75;5052877;28;1563;-64
2022/11/01 08:20:14;;;;;;;;;;;;;;;17.03;92.52;100278.59;5051885;28;1907;-64
2022/11/01 08:22:39;;;;;;;;;;;;;;;17.01;92.29;100263.50;5051896;28;1762;-64
2022/11/01 08:25:05;;;;;;;;;;;;;;;17.03;92.53;100278.59;5050647;28;1896;-64
2022/11/01 08:27:30;;;;;;;;;;;;;;;17.09;92.42;100273.72;5052426;28;1592;-64
2022/11/01 08:29:55;;;;;;;;;;;;;;;17.21;91.87;100284.88;5051445;28;2198;-64
2022/11/01 08:32:20;;;;;;;;;;;;;;;17.18;91.69;100279.22;5044723;28;1939;-64
2022/11/01 08:34:46;;;;;;;;;;;;;;;17.07;91.59;100284.28;5046699;28;1869;-64
2022/11/01 08:37:11;;;;;;;;;;;;;;;16.99;91.40;100290.66;5049298;28;1721;-64
2022/11/01 08:39:37;;;;;;;;;;;;;;;16.95;91.12;100298.78;5052710;28;1360;-64
2022/11/01 08:42:04;;;;;;;;;;;;;;;16.93;90.69;100292.75;5050267;28;1892;-64
2022/11/01 08:44:29;;;;;;;;;;;;;;;16.91;91.22;100292.28;5050842;28;1883;-64
2022/11/01 08:46:55;;;;;;;;;;;;;;;16.89;90.71;100294.56;5049689;28;1790;-64
2022/11/01 08:49:20;;;;;;;;;;;;;;;16.87;90.29;100302.38;5050192;28;1973;-64
2022/11/01 08:51:46;;;;;;;;;;;;;;;16.88;90.64;100311.47;5049884;28;1897;-64
2022/11/01 08:54:11;;;;;;;;;;;;;;;16.85;90.52;100318.47;5051903;28;1783;-64
2022/11/01 08:56:36;;;;;;;;;;;;;;;16.85;89.72;100298.28;5050076;28;1731;-64
2022/11/01 08:59:01;;;;;;;;;;;;;;;16.84;90.03;100313.28;5052548;28;1527;-64
2022/11/01 09:01:27;;;;;;;;;;;;;;;16.83;89.61;100308.88;5053345;28;1920;-64
2022/11/01 09:03:56;;;;;;;;;;;;;;;16.81;89.34;100314.75;5055526;28;2173;-64
2022/11/01 09:06:22;;;;;;;;;;;;;;;16.82;89.72;100324.66;5054884;28;1899;-64
2022/11/01 09:08:47;;;;;;;;;;;;;;;16.81;89.31;100314.75;5055815;28;1705;-64
2022/11/01 09:11:12;;;;;;;;;;;;;;;16.82;88.63;100315.56;5053691;28;1907;-64
2022/11/01 09:13:37;;;;;;;;;;;;;;;16.80;88.89;100326.94;5053387;28;1894;-64
2022/11/01 09:16:04;;;;;;;;;;;;;;;16.81;88.62;100331.31;5052930;28;1912;-64
2022/11/01 09:18:29;;;;;;;;;;;;;;;16.82;89.66;100332.94;5054507;28;1753;-64
2022/11/01 09:20:55;;;;;;;;;;;;;;;16.83;88.70;100334.59;5054833;28;1735;-64
2022/11/01 09:23:20;;;;;;;;;;;;;;;16.89;88.85;100333.28;5052215;28;1969;-64
2022/11/01 09:25:45;;;;;;;;;;;;;;;16.92;89.53;100340.91;5052717;28;1872;-64
2022/11/01 09:28:10;;;;;;;;;;;;;;;16.94;89.55;100330.31;5050398;28;2063;-64
2022/11/01 09:30:36;;;;;;;;;;;;;;;16.95;89.54;100342.19;5052644;28;2033;-63
2022/11/01 09:33:04;;;;;;;;;;;;;;;16.95;88.16;100340.25;5053258;28;1986;-63
2022/11/01 09:35:30;;;;;;;;;;;;;;;16.97;88.92;100350.97;5054446;28;2029;-62
2022/11/01 09:37:58;;;;;;;;;;;;;;;17.01;88.35;100351.97;5053274;28;1837;-62
2022/11/01 09:40:25;;;;;;;;;;;;;;;17.01;89.34;100350.00;5054138;28;2106;-63
2022/11/01 09:42:50;;;;;;;;;;;;;;;17.00;89.47;100353.94;5054292;28;1924;-63
2022/11/01 09:45:21;;;;;;;;;;;;;;;17.00;88.81;100353.94;5052382;28;1971;-63
2022/11/01 09:47:49;;;;;;;;;;;;;;;17.01;88.60;100357.50;5054310;28;1947;-64
2022/11/01 09:50:18;;;;;;;;;;;;;;;17.02;89.08;100350.81;5053745;28;2070;-63
2022/11/01 09:52:43;;;;;;;;;;;;;;;17.04;88.82;100359.59;5054854;28;1897;-63
2022/11/01 09:55:13;;;;;;;;;;;;;;;17.04;89.43;100356.84;5054253;28;2276;-63
2022/11/01 09:57:41;;;;;;;;;;;;;;;17.08;88.26;100365.28;5048822;28;1966;-63
2022/11/01 10:00:18;;;;;;;;;;;;;;;17.11;88.10;100362.66;5053939;28;1853;-63
2022/11/01 10:03:14;;;;;;;;;;;;;;;17.13;87.94;100368.69;5052476;28;2094;-64
2022/11/01 10:05:39;;;;;;;;;;;;;;;17.17;89.40;100375.22;5041703;28;1961;-63
2022/11/01 10:08:04;;;;;;;;;;;;;;;17.19;88.42;100372.91;5052597;28;1792;-63
2022/11/01 10:10:29;;;;;;;;;;;;;;;17.23;89.03;100375.84;5054740;28;1622;-63
2022/11/01 10:13:07;;;;;;;;;;;;;;;17.24;88.15;100381.06;5052698;28;1977;-63
2022/11/01 10:15:42;;;;;;;;;;;;;;;17.27;88.57;100376.81;5051260;28;2053;-64
2022/11/01 10:18:17;;;;;;;;;;;;;;;17.30;88.36;100384.47;5054527;28;1609;-65
2022/11/01 10:20:42;;;;;;;;;;;;;;;17.31;89.27;100380.56;5051992;28;1920;-65
2022/11/01 10:23:12;;;;;;;;;;;;;;;17.32;88.61;100384.94;5053427;28;2105;-66
2022/11/01 10:25:38;;;;;;;;;;;;;;;17.33;89.95;100389.34;5053434;28;1603;-65
2022/11/01 10:28:17;;;;;;;;;;;;;;;17.33;89.20;100394.88;5053456;28;1933;-65
2022/11/01 10:30:45;;;;;;;;;;;;;;;17.32;89.95;100399.59;5048601;28;2185;-65
2022/11/01 10:33:32;;;;;;;;;;;;;;;17.36;89.65;100399.72;5049413;28;2320;-66
2022/11/01 10:36:03;;;;;;;;;;;;;;;17.34;89.82;100400.09;5083153;22;2125;-63
2022/11/01 10:38:34;;;;;;;;;;;;;;;17.36;88.92;100408.03;5084426;28;1953;-62
2022/11/01 10:41:14;;;;;;;;;;;;;;;17.37;90.42;100406.91;5090417;28;1966;-63
2022/11/01 10:43:44;;;;;;;;;;;;;;;17.37;88.98;100407.72;5093295;28;1859;-62
2022/11/01 10:46:12;;;;;;;;;;;;;;;17.37;90.10;100410.47;5075308;28;1694;-62
2022/11/01 10:48:41;;;;;;;;;;;;;;;17.38;90.39;100409.34;5069002;28;1930;-62
2022/11/01 10:51:08;;;;;;;;;;;;;;;17.42;90.48;100414.22;5065204;28;2053;-61
2022/11/01 10:53:36;;;;;;;;;;;;;;;17.42;89.08;100412.28;5065615;28;1961;-62
2022/11/01 10:56:06;;;;;;;;;;;;;;;17.41;90.05;100407.88;5071367;28;2147;-61
2022/11/01 10:58:50;;;;;;;;;;;;;;;17.43;89.28;100415.84;5072150;28;1927;-61
2022/11/01 11:01:18;;;;;;;;;;;;;;;17.22;83.65;100418.47;5068357;28;2016;-61
2022/11/01 11:03:45;;;;;;;;;;;;;;;17.05;81.28;100412.94;5069306;28;1936;-62
2022/11/01 11:06:12;;;;;;;;;;;;;;;16.99;80.40;100420.59;5056382;28;1839;-61
2022/11/01 11:08:38;;;;;;;;;;;;;;;17.07;82.28;100417.03;5070984;28;2055;-62
2022/11/01 11:11:06;;;;;;;;;;;;;;;17.18;84.27;100420.28;5069927;28;1914;-62
2022/11/01 11:13:33;;;;;;;;;;;;;;;17.25;83.01;100426.13;5067852;28;1898;-62
2022/11/01 11:16:00;;;;;;;;;;;;;;;17.27;84.71;100429.38;5072496;28;1682;-62
2022/11/01 11:18:34;;;;;;;;;;;;;;;17.29;84.22;100424.31;5072683;28;2023;-62
2022/11/01 11:21:07;;;;;;;;;;;;;;;17.31;85.68;100431.16;5069479;28;2019;-62
2022/11/01 11:23:34;;;;;;;;;;;;;;;17.32;85.57;100424.50;5063896;28;2021;-62
2022/11/01 11:26:03;;;;;;;;;;;;;;;17.32;85.63;100427.25;5065327;28;2849;-62
2022/11/01 11:28:30;;;;;;;;;;;;;;;17.37;84.92;100429.84;5063348;28;2029;-62
2022/11/01 11:30:57;;;;;;;;;;;;;;;17.35;85.24;100425.81;5059702;28;1925;-62
2022/11/01 11:33:22;;;;;;;;;;;;;;;17.31;85.14;100424.81;5059783;28;2051;-62
2022/11/01 11:35:55;;;;;;;;;;;;;;;17.29;85.06;100424.31;5072675;28;1312;-61
2022/11/01 11:38:38;;;;;;;;;;;;;;;17.27;85.95;100429.38;5070110;28;1874;-62
2022/11/01 11:41:03;;;;;;;;;;;;;;;17.26;85.37;100427.75;5066780;28;1840;-62
2022/11/01 11:43:30;;;;;;;;;;;;;;;17.26;85.57;100436.88;5068117;28;1813;-62
2022/11/01 11:46:02;;;;;;;;;;;;;;;17.26;85.85;100441.59;5061243;28;1583;-62
2022/11/01 11:48:28;;;;;;;;;;;;;;;17.26;86.78;100438.81;5067245;28;3409;-62
2022/11/01 11:51:03;;;;;;;;;;;;;;;17.24;86.06;100435.56;5069012;28;1866;-62
2022/11/01 11:53:28;;;;;;;;;;;;;;;17.23;86.82;100440.28;5059081;28;1965;-62
2022/11/01 11:55:55;;;;;;;;;;;;;;;17.24;86.51;100452.16;5070310;28;1963;-62
2022/11/01 11:58:31;;;;;;;;;;;;;;;17.23;86.50;100447.75;5069060;28;1822;-62
2022/11/01 12:00:59;;;;;;;;;;;;;;;17.22;86.58;100449.72;5065990;28;2008;-62
2022/11/01 12:03:25;;;;;;;;;;;;;;;17.24;87.49;100449.41;5066100;28;1898;-61
2022/11/01 12:06:08;;;;;;;;;;;;;;;17.26;86.07;100452.66;5068827;28;2092;-63
2022/11/01 12:08:36;;;;;;;;;;;;;;;17.30;87.16;100453.63;5069875;28;1949;-62
2022/11/01 12:11:01;;;;;;;;;;;;;;;17.34;87.37;100449.06;5070759;28;1983;-63
2022/11/01 12:13:37;;;;;;;;;;;;;;;17.39;86.90;100459.97;5069940;28;1953;-62
2022/11/01 12:16:06;;;;;;;;;;;;;;;17.43;87.40;100449.88;5065408;28;1582;-61
2022/11/01 12:18:31;;;;;;;;;;;;;;;17.48;86.59;100455.22;5066279;28;1574;-62
2022/11/01 12:20:57;;;;;;;;;;;;;;;17.47;87.61;100453.59;5062321;28;1772;-62
2022/11/01 12:23:27;;;;;;;;;;;;;;;17.50;86.28;100457.69;5069618;28;1692;-63
2022/11/01 12:25:53;;;;;;;;;;;;;;;17.50;87.35;100458.50;5061811;28;1932;-62
2022/11/01 12:28:23;;;;;;;;;;;;;;;17.48;86.43;100462.72;5072828;28;1963;-62
2022/11/01 12:30:50;;;;;;;;;;;;;;;17.49;87.08;100467.94;5071861;28;1965;-62
2022/11/01 12:33:23;;;;;;;;;;;;;;;17.50;87.78;100464.03;5064587;28;1905;-62
2022/11/01 12:35:50;;;;;;;;;;;;;;;17.50;87.95;100464.03;5070981;28;1882;-62
2022/11/01 12:38:18;;;;;;;;;;;;;;;17.52;87.94;100460.94;5070839;28;1587;-62
2022/11/01 12:40:44;;;;;;;;;;;;;;;17.52;86.34;100470.06;5066623;28;1936;-62
2022/11/01 12:43:27;;;;;;;;;;;;;;;17.52;86.87;100460.94;5068262;28;1678;-61
2022/11/01 12:46:12;;;;;;;;;;;;;;;17.53;88.00;100462.53;5057389;28;2188;-62
2022/11/01 12:48:46;;;;;;;;;;;;;;;17.57;87.50;100469.88;5074563;28;1942;-62
2022/11/01 12:51:17;;;;;;;;;;;;;;;17.59;87.58;100477.84;5075321;28;1876;-62
2022/11/01 12:53:58;;;;;;;;;;;;;;;17.61;86.58;100473.59;5067982;28;1894;-62
2022/11/01 12:56:23;;;;;;;;;;;;;;;17.65;87.62;100474.63;5074868;28;1699;-62
2022/11/01 12:58:50;;;;;;;;;;;;;;;17.71;87.93;100478.81;5064781;28;1506;-63